Ransom, Illinois
Current Conditions -  °F | °C
As of 8:35 AM on Sunday 23 Nov 2014 (Local Time) from KPNT Reporting Station
Broken Clouds Broken Clouds  
Wind Chill: 43°   Ceiling: 12000
Heat Index: 49°   Visibility: 10mi
Dew Point: 45°   Wind: 16mph
Humidity: 85%   Direction: 170°S
Pressure: 29.74"   Gusts: 22mph
Location:  41.16°N, 88.65°W
Report Text: KPNT 231435Z AUTO 17014G19KT 10SM SCT100 BKN120 10/07 A2974 RMK AO2 T00950071
Loading
Personal Weather Stations






























Interactive Weather Map New forecast layout! Learn more

10-Day Weather Forecast

Advertisements
Track Severe Weather on mobile